aviador You're here:

YGLA Decoded Metar

in
Report Time2018-01-18 09:30:00
UTC Time2018-01-18 10:00:10
Flight Rules vfr VFR
Wind100° at 12 kt
W.Decomp.*RWY 10: 12.0 kt HW -0 kt LCW
W.Rank100° ranks 4
Current wind is above 100° avg. (11.9)
Visibility9999 m
Phenomena:N/A
Clouds:N/A
Expected CloudBase > 2,800 ft AGL from Temp-Dew spread
CeilingNone
Temp26°C
Dew Point19°C (65% RH)
AAT24.9°C
QNH1015 hPa
Raw Report
METAR YGLA 180930Z AUTO 10012KT 9999 // NCD 26/19 Q1015
RF00.0/000.0=

Extra information for YGLA:More info

Social comments